Terminal Aerodrome Forecast
Issued by NWS La Crosse, WI

Home | Current Version | Previous Version | Text Only | Print | Product List | Glossary On
Versions: 1 2 3 4 5 6 7 8 9 10 11 12 13 14 15 16 17 18
000
FTUS43 KARX 222333
TAFRST
TAF
KRST 222333Z 2300/2324 36007KT P6SM -SHRA OVC050
      TEMPO 2300/2303 2SM TSRA BKN025CB
     FM230300 34006KT P6SM VCSH BKN050
     FM230500 30006KT P6SM SCT080
     FM231400 30012KT P6SM SCT150
     FM231800 31016G22KT P6SM BKN035=

USA.gov is the U.S. government's official web portal to all federal, state and local government web resources and services.